createdAt,value
2018-07-09T00:03:11.241Z,18.10
2018-07-09T00:07:14.024Z,18.20
2018-07-09T00:11:16.950Z,17.70
2018-07-09T00:15:19.833Z,18.10
2018-07-09T00:19:22.773Z,18.10
2018-07-09T00:23:25.736Z,18.50
2018-07-09T00:27:28.635Z,18.30
2018-07-09T00:31:31.668Z,18.10
2018-07-09T00:35:34.638Z,18.10
2018-07-09T00:39:37.541Z,17.30
2018-07-09T00:43:40.398Z,17.80
2018-07-09T00:47:43.342Z,17.70
2018-07-09T00:51:46.752Z,17.30
2018-07-09T00:55:49.667Z,17.30
2018-07-09T00:59:52.730Z,17.70
2018-07-09T01:03:55.522Z,18.60
2018-07-09T01:07:58.401Z,18.20
2018-07-09T01:12:08.794Z,19.00
2018-07-09T01:16:11.968Z,19.80
2018-07-09T01:20:14.902Z,19.80
2018-07-09T01:24:17.773Z,18.90
2018-07-09T01:28:20.727Z,18.30
2018-07-09T01:32:23.558Z,17.70
2018-07-09T01:36:26.431Z,18.30
2018-07-09T01:40:29.219Z,18.60
2018-07-09T01:44:32.130Z,19.50
2018-07-09T01:48:35.004Z,19.20
2018-07-09T01:52:37.841Z,18.40
2018-07-09T01:56:40.656Z,18.40
2018-07-09T02:00:43.538Z,17.80
2018-07-09T02:04:46.357Z,17.70
2018-07-09T02:08:49.244Z,17.10
2018-07-09T02:12:52.137Z,17.70
2018-07-09T02:16:54.981Z,17.30
2018-07-09T02:20:57.838Z,18.60
2018-07-09T02:25:00.669Z,17.90
2018-07-09T02:29:03.471Z,17.80
2018-07-09T02:33:06.359Z,18.00
2018-07-09T02:37:09.203Z,18.60
2018-07-09T02:41:12.033Z,18.00
2018-07-09T02:45:15.140Z,17.90
2018-07-09T02:49:18.240Z,17.70
2018-07-09T02:53:21.083Z,17.00
2018-07-09T02:57:23.941Z,17.00
2018-07-09T03:01:26.833Z,17.10
2018-07-09T03:05:29.712Z,17.00
2018-07-09T03:09:32.826Z,16.90
2018-07-09T03:13:35.762Z,16.60
2018-07-09T03:17:38.607Z,17.40
2018-07-09T03:21:48.583Z,16.60
2018-07-09T03:25:53.600Z,16.50
2018-07-09T03:29:56.435Z,16.10
2018-07-09T03:33:59.309Z,16.60
2018-07-09T03:38:02.135Z,16.40
2018-07-09T03:42:05.034Z,17.30
2018-07-09T03:46:07.935Z,16.70
2018-07-09T03:50:10.774Z,16.60
2018-07-09T03:54:13.718Z,16.70
2018-07-09T03:58:16.564Z,17.90
2018-07-09T04:06:22.243Z,17.80
2018-07-09T04:10:25.090Z,17.80
2018-07-09T04:14:27.891Z,17.40
2018-07-09T04:18:30.708Z,17.40
2018-07-09T04:22:33.573Z,17.70
2018-07-09T04:26:36.358Z,18.10
2018-07-09T04:30:39.162Z,18.00
2018-07-09T04:34:41.989Z,17.70
2018-07-09T04:38:44.788Z,18.20
2018-07-09T04:42:47.631Z,17.80
2018-07-09T04:46:50.486Z,17.20
2018-07-09T04:50:53.353Z,17.30
2018-07-09T04:54:56.170Z,18.00
2018-07-09T04:58:58.987Z,18.30
2018-07-09T05:03:01.876Z,17.60
2018-07-09T05:07:04.841Z,17.00
2018-07-09T05:11:07.716Z,17.40
2018-07-09T05:15:10.508Z,18.20
2018-07-09T05:19:13.307Z,18.50
2018-07-09T05:23:16.145Z,18.60
2018-07-09T05:27:18.916Z,18.50
2018-07-09T05:31:21.777Z,18.90
2018-07-09T05:35:24.683Z,19.20
2018-07-09T05:39:27.728Z,19.30
2018-07-09T05:43:31.180Z,18.60
2018-07-09T05:47:34.969Z,18.50
2018-07-09T05:51:37.886Z,19.10
2018-07-09T05:55:40.687Z,19.00
2018-07-09T05:59:43.937Z,19.50
2018-07-09T06:03:46.879Z,19.50
2018-07-09T06:07:49.806Z,20.00
2018-07-09T06:11:52.690Z,19.70
2018-07-09T06:15:55.572Z,19.50
2018-07-09T06:19:58.415Z,19.00
2018-07-09T06:24:01.659Z,19.00
2018-07-09T06:32:08.020Z,19.10
2018-07-09T06:40:13.708Z,19.20
2018-07-09T06:44:16.642Z,19.10
2018-07-09T06:48:19.596Z,18.90
2018-07-09T06:52:22.504Z,19.30
2018-07-09T06:56:25.541Z,19.20
2018-07-09T07:00:28.380Z,19.00
2018-07-09T07:04:31.220Z,19.40
2018-07-09T07:08:34.195Z,19.10
2018-07-09T07:12:37.058Z,19.30
2018-07-09T07:16:39.960Z,19.50
2018-07-09T07:20:42.876Z,19.90
2018-07-09T07:24:45.744Z,19.90
2018-07-09T07:28:48.667Z,20.00
2018-07-09T07:32:51.676Z,20.90
2018-07-09T07:36:54.564Z,21.30
2018-07-09T07:40:57.425Z,21.60
2018-07-09T07:45:01.066Z,21.60
2018-07-09T07:49:03.958Z,21.00
2018-07-09T07:53:06.796Z,20.90
2018-07-09T07:57:10.144Z,20.90
2018-07-09T08:01:12.974Z,21.20
2018-07-09T08:05:15.933Z,21.40
2018-07-09T08:09:19.095Z,21.20
2018-07-09T08:13:29.350Z,21.20
2018-07-09T08:17:25.140Z,21.00
